Time;durP1;ratioP1;P1;durP2;ratioP2;P2;SDS_P1;SDS_P2;PMS_P1;PMS_P2;Temp;Humidity;BMP_temperature;BMP_pressure;BME280_temperature;BME280_humidity;BME280_pressure;Samples;Min_cycle;Max_cycle;Signal;HPM_P1;HPM_P2
2023/07/01 00:00:33;;;;;;;5.60;3.45;;;23.70;56.50;;;;;;5165638;22;20232;-83
2023/07/01 00:03:04;;;;;;;4.10;3.55;;;23.60;56.60;;;;;;5033585;28;20203;-83
2023/07/01 00:05:32;;;;;;;3.88;3.05;;;23.70;56.60;;;;;;5033423;28;20196;-83
2023/07/01 00:07:59;;;;;;;4.93;3.40;;;23.70;56.40;;;;;;5033262;28;20227;-83
2023/07/01 00:10:26;;;;;;;3.10;2.90;;;23.60;56.10;;;;;;5014717;28;20204;-83
2023/07/01 00:12:54;;;;;;;3.30;3.00;;;23.60;56.10;;;;;;5013666;28;20232;-83
2023/07/01 00:15:22;;;;;;;3.28;2.90;;;23.60;55.90;;;;;;5013617;28;20235;-83
2023/07/01 00:17:48;;;;;;;3.25;2.90;;;23.50;55.90;;;;;;5013282;28;20551;-83
2023/07/01 00:20:16;;;;;;;3.28;2.80;;;23.50;55.80;;;;;;5013195;28;20221;-83
2023/07/01 00:22:43;;;;;;;3.08;2.67;;;23.50;55.80;;;;;;5029631;28;20200;-83
2023/07/01 00:25:10;;;;;;;2.88;2.67;;;23.50;55.60;;;;;;5013905;28;20295;-83
2023/07/01 00:27:37;;;;;;;3.20;2.90;;;23.50;55.50;;;;;;5014312;28;20227;-83
2023/07/01 00:30:08;;;;;;;3.10;2.80;;;23.50;55.50;;;;;;5017979;28;20307;-83
2023/07/01 00:32:35;;;;;;;2.85;2.65;;;23.50;55.40;;;;;;5018671;28;20222;-83
2023/07/01 00:35:02;;;;;;;3.95;2.67;;;23.50;55.40;;;;;;5017519;28;20251;-83
2023/07/01 00:37:30;;;;;;;3.92;2.85;;;23.50;55.40;;;;;;5017200;28;20204;-83
2023/07/01 00:39:57;;;;;;;4.57;2.80;;;23.40;55.20;;;;;;5017706;28;20227;-83
2023/07/01 00:42:24;;;;;;;3.85;2.90;;;23.50;55.40;;;;;;5017962;28;20193;-83
2023/07/01 00:44:51;;;;;;;5.03;2.80;;;23.50;55.30;;;;;;5017291;28;20197;-83
2023/07/01 00:47:20;;;;;;;5.38;2.85;;;23.40;55.20;;;;;;5017090;28;20255;-83
2023/07/01 00:49:47;;;;;;;6.28;2.97;;;23.40;55.40;;;;;;5016742;28;20272;-83
2023/07/01 00:52:14;;;;;;;4.53;2.92;;;23.40;55.40;;;;;;5016474;28;20220;-83
2023/07/01 00:54:41;;;;;;;5.93;3.00;;;23.30;55.20;;;;;;5018261;28;20213;-83
2023/07/01 00:57:08;;;;;;;4.88;3.10;;;23.30;55.20;;;;;;5019096;28;20208;-83
2023/07/01 00:59:35;;;;;;;4.22;2.83;;;23.40;55.10;;;;;;5018396;28;20256;-83
2023/07/01 01:02:05;;;;;;;4.95;2.75;;;23.30;55.10;;;;;;5018510;28;20236;-83
2023/07/01 01:04:38;;;;;;;3.45;2.80;;;23.30;55.20;;;;;;5020532;28;20216;-83
2023/07/01 01:07:08;;;;;;;4.93;2.50;;;23.30;55.10;;;;;;5016987;28;20193;-82
2023/07/01 01:09:38;;;;;;;3.05;2.55;;;23.30;55.10;;;;;;5016510;28;20233;-83
2023/07/01 01:12:06;;;;;;;3.17;2.38;;;23.30;55.00;;;;;;5016601;28;20220;-83
2023/07/01 01:14:34;;;;;;;3.03;2.55;;;23.30;54.90;;;;;;5016455;28;20236;-83
2023/07/01 01:17:04;;;;;;;3.72;2.40;;;23.20;54.90;;;;;;5016228;28;20201;-83
2023/07/01 01:19:37;;;;;;;2.83;2.20;;;23.20;54.70;;;;;;5016062;28;20220;-83
2023/07/01 01:22:21;;;;;;;5.95;2.65;;;23.30;54.70;;;;;;5016202;28;20251;-83
2023/07/01 01:24:52;;;;;;;4.43;2.65;;;23.20;56.00;;;;;;5014338;28;20207;-83
2023/07/01 01:27:23;;;;;;;3.25;2.40;;;23.20;57.10;;;;;;5016167;28;20189;-83
2023/07/01 01:29:51;;;;;;;2.78;2.15;;;23.20;56.30;;;;;;5016747;28;20566;-83
2023/07/01 01:32:19;;;;;;;2.65;2.45;;;23.20;56.60;;;;;;5016186;28;20217;-83
2023/07/01 01:34:46;;;;;;;2.90;2.28;;;23.10;56.70;;;;;;5017072;28;20204;-83
2023/07/01 01:37:15;;;;;;;2.47;2.20;;;23.10;56.10;;;;;;5016717;28;20196;-83
2023/07/01 01:39:44;;;;;;;2.35;2.00;;;23.10;56.00;;;;;;5015610;28;20239;-83
2023/07/01 01:42:14;;;;;;;3.60;2.00;;;23.10;55.70;;;;;;5016125;28;20287;-83
2023/07/01 01:44:47;;;;;;;2.50;2.25;;;23.10;55.60;;;;;;5015918;28;20299;-83
2023/07/01 01:47:16;;;;;;;2.53;2.33;;;23.00;55.50;;;;;;5000315;28;20193;-83
2023/07/01 01:49:43;;;;;;;2.28;2.00;;;23.10;55.50;;;;;;5016100;28;20224;-83
2023/07/01 01:52:11;;;;;;;2.47;1.92;;;23.00;55.50;;;;;;5016174;28;20212;-83
2023/07/01 01:54:38;;;;;;;2.17;1.98;;;23.00;55.40;;;;;;5016392;28;20563;-83
2023/07/01 01:57:06;;;;;;;4.93;2.10;;;23.00;55.10;;;;;;5015964;28;20213;-83
2023/07/01 01:59:33;;;;;;;2.42;2.10;;;23.00;55.30;;;;;;5016106;28;20224;-83
2023/07/01 02:02:01;;;;;;;3.08;2.00;;;23.00;55.20;;;;;;5015651;28;20193;-83
2023/07/01 02:04:30;;;;;;;2.15;2.00;;;22.90;55.00;;;;;;5015475;28;20200;-83
2023/07/01 02:06:57;;;;;;;2.88;1.95;;;22.90;55.00;;;;;;5015400;28;20294;-83
2023/07/01 02:09:25;;;;;;;2.20;1.98;;;22.90;54.90;;;;;;5015379;28;20275;-83
2023/07/01 02:11:51;;;;;;;2.17;1.83;;;22.90;55.00;;;;;;5015202;28;20228;-83
2023/07/01 02:14:19;;;;;;;2.25;1.70;;;22.90;54.70;;;;;;5015226;28;20197;-83
2023/07/01 02:16:46;;;;;;;2.60;2.17;;;22.80;54.70;;;;;;5015164;28;20208;-83
2023/07/01 02:19:13;;;;;;;2.05;1.88;;;22.80;54.70;;;;;;5014928;28;20270;-83
2023/07/01 02:21:42;;;;;;;1.98;1.88;;;22.80;54.60;;;;;;5017218;28;20252;-83
2023/07/01 02:24:09;;;;;;;2.53;2.08;;;22.80;54.60;;;;;;5021047;28;20626;-83
2023/07/01 02:26:36;;;;;;;2.30;2.10;;;22.90;54.70;;;;;;4999230;28;20200;-83
2023/07/01 02:29:04;;;;;;;2.58;2.10;;;22.80;54.50;;;;;;5015207;28;20216;-83
2023/07/01 02:31:32;;;;;;;1.88;1.77;;;22.70;54.50;;;;;;5015223;28;20332;-83
2023/07/01 02:34:01;;;;;;;1.98;1.80;;;22.80;54.60;;;;;;5018101;28;20209;-83
2023/07/01 02:36:28;;;;;;;2.10;1.88;;;22.70;54.60;;;;;;5019266;28;20268;-83
2023/07/01 02:38:57;;;;;;;2.60;1.60;;;22.70;55.10;;;;;;5018249;28;20221;-83
2023/07/01 02:41:25;;;;;;;2.78;1.92;;;22.70;54.50;;;;;;5018113;28;20197;-83
2023/07/01 02:43:52;;;;;;;2.97;1.90;;;22.70;54.70;;;;;;5000887;28;20204;-83
2023/07/01 02:46:19;;;;;;;1.95;1.85;;;22.70;54.60;;;;;;5016799;28;20203;-83
2023/07/01 02:48:46;;;;;;;2.35;1.90;;;22.60;54.50;;;;;;5015981;28;20722;-83
2023/07/01 02:51:13;;;;;;;3.67;2.20;;;22.60;54.40;;;;;;5015885;28;20196;-83
2023/07/01 02:53:40;;;;;;;1.88;1.77;;;22.60;54.50;;;;;;5016119;28;20203;-83
2023/07/01 02:56:09;;;;;;;3.15;1.83;;;22.60;54.50;;;;;;5016280;28;20577;-83
2023/07/01 02:58:36;;;;;;;2.28;1.90;;;22.60;54.70;;;;;;5014448;28;20709;-83
2023/07/01 03:01:04;;;;;;;2.20;2.03;;;22.60;54.60;;;;;;5014867;28;20630;-83
2023/07/01 03:03:31;;;;;;;2.38;1.92;;;22.60;54.60;;;;;;5014657;28;20667;-83
2023/07/01 03:05:58;;;;;;;3.08;2.20;;;22.60;54.70;;;;;;5014413;28;20200;-83
2023/07/01 03:08:26;;;;;;;2.20;1.90;;;22.50;54.50;;;;;;4998030;28;20217;-83
2023/07/01 03:10:54;;;;;;;2.10;1.90;;;22.50;54.50;;;;;;5015042;28;20197;-83
2023/07/01 03:13:22;;;;;;;2.47;1.80;;;22.50;54.50;;;;;;5014261;28;20221;-83
2023/07/01 03:15:50;;;;;;;4.10;2.00;;;22.50;54.50;;;;;;5015212;28;20192;-83
2023/07/01 03:18:17;;;;;;;2.75;1.77;;;22.50;54.30;;;;;;5015311;28;20193;-83
2023/07/01 03:20:44;;;;;;;3.05;2.00;;;22.50;54.20;;;;;;5014628;28;20200;-83
2023/07/01 03:23:11;;;;;;;2.25;1.98;;;22.50;54.20;;;;;;5014687;28;20606;-83
2023/07/01 03:25:38;;;;;;;2.03;1.83;;;22.50;54.30;;;;;;5014569;28;20220;-83
2023/07/01 03:28:06;;;;;;;2.13;1.83;;;22.50;54.20;;;;;;5014372;28;20255;-83
2023/07/01 03:30:34;;;;;;;2.97;1.88;;;22.60;54.40;;;;;;4998163;28;20291;-83
2023/07/01 03:33:02;;;;;;;3.30;2.00;;;22.60;54.40;;;;;;5014258;28;20337;-83
2023/07/01 03:35:28;;;;;;;2.08;1.80;;;22.70;54.20;;;;;;5013986;28;20196;-83
2023/07/01 03:38:17;;;;;;;3.95;2.10;;;22.70;54.00;;;;;;5015253;28;20195;-83
2023/07/01 03:40:45;;;;;;;3.13;2.25;;;22.70;53.80;;;;;;4998107;28;20197;-83
2023/07/01 03:43:11;;;;;;;4.05;2.30;;;22.80;53.90;;;;;;5014171;28;20247;-83
2023/07/01 03:45:41;;;;;;;2.58;2.38;;;22.80;53.60;;;;;;5015103;28;20719;-83
2023/07/01 03:48:07;;;;;;;2.55;1.90;;;22.80;53.80;;;;;;5014129;28;20617;-83
2023/07/01 03:50:34;;;;;;;2.25;2.00;;;22.80;53.60;;;;;;5014806;28;20200;-83
2023/07/01 03:53:01;;;;;;;2.30;2.10;;;22.80;53.40;;;;;;5014444;28;20220;-83
2023/07/01 03:55:28;;;;;;;2.55;2.10;;;22.80;53.60;;;;;;5014263;28;20192;-83
2023/07/01 03:57:55;;;;;;;2.30;2.10;;;22.80;53.40;;;;;;5014024;28;20232;-83
2023/07/01 04:00:23;;;;;;;2.45;2.10;;;22.80;53.50;;;;;;5014258;28;20259;-83
2023/07/01 04:02:53;;;;;;;2.75;1.92;;;22.80;53.60;;;;;;5012599;28;20723;-83
2023/07/01 04:05:21;;;;;;;2.72;2.25;;;22.80;53.50;;;;;;5014280;28;20193;-83
2023/07/01 04:07:48;;;;;;;2.30;2.10;;;22.80;53.50;;;;;;5013796;28;20721;-83
2023/07/01 04:10:37;;;;;;;2.60;2.00;;;22.80;53.30;;;;;;5017345;28;20188;-83
2023/07/01 04:13:05;;;;;;;2.53;2.33;;;22.80;53.40;;;;;;5015806;28;20217;-83
2023/07/01 04:15:32;;;;;;;2.33;2.13;;;22.70;53.40;;;;;;5013728;28;20201;-83
2023/07/01 04:18:00;;;;;;;3.17;2.20;;;22.70;53.30;;;;;;5013332;28;20246;-83
2023/07/01 04:20:28;;;;;;;3.47;2.10;;;22.70;53.50;;;;;;5013380;28;20250;-83
2023/07/01 04:22:56;;;;;;;2.30;2.10;;;22.80;53.40;;;;;;5013264;28;20717;-83
2023/07/01 04:25:23;;;;;;;2.00;1.90;;;22.90;53.60;;;;;;5013361;28;20197;-83
2023/07/01 04:27:50;;;;;;;2.42;2.15;;;22.70;53.60;;;;;;5012095;28;20204;-83
2023/07/01 04:30:17;;;;;;;4.43;2.20;;;22.80;53.50;;;;;;5013399;28;20216;-83
2023/07/01 04:32:44;;;;;;;3.63;2.30;;;22.80;53.50;;;;;;5013975;28;20231;-83
2023/07/01 04:35:12;;;;;;;3.03;1.90;;;22.80;53.60;;;;;;5014115;28;20197;-83
2023/07/01 04:37:39;;;;;;;2.05;1.92;;;22.90;53.70;;;;;;5017675;28;20197;-83
2023/07/01 04:40:07;;;;;;;2.83;2.00;;;22.90;53.70;;;;;;5038390;28;20232;-83
2023/07/01 04:42:35;;;;;;;3.10;2.38;;;22.80;53.70;;;;;;5038633;28;20193;-83
2023/07/01 04:45:02;;;;;;;2.40;2.20;;;22.90;53.80;;;;;;5038619;28;20169;-84
2023/07/01 04:47:30;;;;;;;3.28;2.10;;;22.90;53.80;;;;;;5038119;28;20186;-83
2023/07/01 04:49:57;;;;;;;2.35;2.15;;;23.00;53.80;;;;;;5030448;28;20243;-83
2023/07/01 04:52:26;;;;;;;2.97;2.20;;;23.10;53.60;;;;;;5013601;28;20259;-83
2023/07/01 04:54:53;;;;;;;3.60;2.60;;;23.30;53.40;;;;;;5013370;28;20200;-83
2023/07/01 04:57:20;;;;;;;2.38;2.13;;;23.40;52.90;;;;;;5013087;28;20205;-83
2023/07/01 04:59:48;;;;;;;2.58;2.30;;;23.60;52.90;;;;;;5012698;28;20594;-83
2023/07/01 05:02:14;;;;;;;2.47;2.28;;;23.60;52.40;;;;;;4997012;28;20201;-83
2023/07/01 05:04:42;;;;;;;2.42;2.22;;;23.80;52.20;;;;;;5012765;28;20200;-83
2023/07/01 05:07:09;;;;;;;3.65;2.17;;;24.00;52.00;;;;;;5013116;28;20193;-83
2023/07/01 05:09:38;;;;;;;2.20;2.00;;;24.10;51.80;;;;;;5012507;28;20277;-83
2023/07/01 05:12:06;;;;;;;2.47;2.28;;;24.20;51.60;;;;;;5012588;28;20271;-83
2023/07/01 05:14:32;;;;;;;2.55;2.35;;;24.30;51.40;;;;;;5015174;28;20255;-83
2023/07/01 05:17:00;;;;;;;2.58;2.20;;;24.40;51.10;;;;;;5016399;28;20280;-83
2023/07/01 05:19:26;;;;;;;2.88;2.22;;;24.50;50.90;;;;;;5016692;28;20223;-83
2023/07/01 05:21:55;;;;;;;3.28;2.40;;;24.60;50.80;;;;;;5016355;28;20802;-83
2023/07/01 05:24:22;;;;;;;2.00;1.90;;;24.70;50.60;;;;;;5017348;28;20200;-83
2023/07/01 05:26:51;;;;;;;3.17;2.40;;;24.70;50.30;;;;;;5016340;28;20243;-83
2023/07/01 05:29:20;;;;;;;2.45;2.22;;;24.80;50.20;;;;;;5016487;28;20287;-83
2023/07/01 05:31:49;;;;;;;2.78;1.98;;;24.90;50.00;;;;;;5016743;28;20201;-83
2023/07/01 05:34:16;;;;;;;2.42;2.20;;;25.00;50.50;;;;;;5000388;28;20231;-83
2023/07/01 05:36:43;;;;;;;2.70;2.30;;;25.10;49.80;;;;;;5016653;28;20193;-83
2023/07/01 05:39:10;;;;;;;2.50;2.30;;;25.10;49.70;;;;;;5018315;28;20275;-83
2023/07/01 05:41:38;;;;;;;3.05;1.90;;;25.20;49.40;;;;;;5016139;28;20197;-83
2023/07/01 05:44:06;;;;;;;2.97;2.35;;;25.30;49.20;;;;;;5000476;28;20291;-83
2023/07/01 05:46:33;;;;;;;2.53;2.30;;;25.40;49.00;;;;;;5015901;28;20296;-83
2023/07/01 05:49:00;;;;;;;2.65;2.20;;;25.40;48.70;;;;;;5015591;28;20213;-82
2023/07/01 05:51:27;;;;;;;2.28;2.00;;;25.60;48.60;;;;;;5015878;28;20247;-83
2023/07/01 05:53:54;;;;;;;2.33;2.13;;;25.60;48.30;;;;;;5015840;28;20225;-83
2023/07/01 05:56:21;;;;;;;2.88;2.10;;;25.70;48.10;;;;;;5000740;28;20235;-83
2023/07/01 06:20:26;;;;;;;3.40;1.95;;;26.20;46.20;;;;;;5081092;22;20753;-58
2023/07/01 06:22:53;;;;;;;2.33;2.13;;;26.30;45.90;;;;;;5074023;28;20246;-58
2023/07/01 06:25:20;;;;;;;2.42;2.00;;;26.40;45.60;;;;;;5056391;28;20209;-58
2023/07/01 06:27:47;;;;;;;2.25;1.77;;;26.40;45.40;;;;;;5075289;28;20655;-58
2023/07/01 06:30:15;;;;;;;2.45;1.90;;;26.50;45.20;;;;;;5057476;28;20249;-58
2023/07/01 06:32:42;;;;;;;1.85;1.75;;;26.60;45.00;;;;;;5057001;28;20219;-58
2023/07/01 06:35:09;;;;;;;2.50;1.80;;;26.60;44.70;;;;;;5057320;28;20228;-58
2023/07/01 06:37:38;;;;;;;2.25;2.00;;;26.70;44.60;;;;;;5057169;28;20202;-58
2023/07/01 06:40:07;;;;;;;2.30;1.75;;;26.70;44.30;;;;;;5074952;28;20236;-58
2023/07/01 06:42:35;;;;;;;3.08;2.10;;;26.80;44.10;;;;;;5074807;28;20203;-58
2023/07/01 06:45:03;;;;;;;2.60;2.05;;;26.80;44.00;;;;;;5074699;28;20190;-58
2023/07/01 06:47:30;;;;;;;1.70;1.60;;;26.90;43.80;;;;;;5056874;28;20260;-58
2023/07/01 06:49:57;;;;;;;3.20;2.00;;;26.90;43.70;;;;;;5074747;28;20197;-58
2023/07/01 06:52:24;;;;;;;2.13;1.90;;;27.00;43.60;;;;;;5074478;28;20214;-58
2023/07/01 06:54:52;;;;;;;3.22;1.70;;;27.00;43.40;;;;;;5074658;28;20187;-58
2023/07/01 06:57:19;;;;;;;2.67;2.05;;;27.10;43.20;;;;;;5056681;28;20198;-58
2023/07/01 06:59:46;;;;;;;3.30;1.88;;;27.10;43.70;;;;;;5074633;28;20661;-58
2023/07/01 07:02:14;;;;;;;2.40;2.00;;;27.20;42.90;;;;;;5056450;28;20309;-58
2023/07/01 07:04:42;;;;;;;2.90;2.00;;;27.20;42.80;;;;;;5074634;28;20249;-58
2023/07/01 07:07:09;;;;;;;2.28;1.80;;;27.30;42.70;;;;;;5074405;28;20191;-58
2023/07/01 07:09:35;;;;;;;2.00;1.80;;;27.30;42.40;;;;;;5067303;28;20548;-55
2023/07/01 07:12:05;;;;;;;2.55;1.83;;;27.30;42.20;;;;;;5049334;28;20284;-58
2023/07/01 07:14:32;;;;;;;1.90;1.80;;;27.40;42.10;;;;;;5056423;28;20213;-58
2023/07/01 07:16:59;;;;;;;2.90;2.00;;;27.40;42.00;;;;;;5056287;28;20289;-58
2023/07/01 07:19:26;;;;;;;2.95;1.92;;;27.50;42.00;;;;;;5056100;28;20210;-58
2023/07/01 07:21:54;;;;;;;2.00;1.75;;;27.50;41.90;;;;;;5056241;28;20225;-58
2023/07/01 07:24:21;;;;;;;1.70;1.60;;;27.50;41.70;;;;;;5056216;28;20571;-58
2023/07/01 07:26:55;;;;;;;3.67;1.98;;;27.60;41.80;;;;;;5042399;28;20190;-58
2023/07/01 07:29:24;;;;;;;2.28;2.00;;;27.50;41.50;;;;;;5074041;28;20201;-58
2023/07/01 07:31:51;;;;;;;1.90;1.80;;;27.60;41.40;;;;;;5056066;28;20210;-58
2023/07/01 07:34:19;;;;;;;2.53;1.73;;;27.60;41.40;;;;;;5073985;28;20229;-58
2023/07/01 07:36:46;;;;;;;1.85;1.75;;;27.70;41.50;;;;;;5074405;28;20190;-58
2023/07/01 07:39:14;;;;;;;2.45;2.00;;;27.70;41.50;;;;;;5056011;28;20194;-58
2023/07/01 07:41:41;;;;;;;3.28;1.80;;;27.70;41.50;;;;;;5055983;28;20221;-58
2023/07/01 07:44:07;;;;;;;2.00;1.80;;;27.80;41.50;;;;;;5056311;28;20297;-60
2023/07/01 07:46:37;;;;;;;2.55;1.90;;;27.70;39.50;;;;;;5073185;28;20186;-57
2023/07/01 07:49:04;;;;;;;3.85;1.73;;;27.50;38.70;;;;;;5072710;28;20646;-60
2023/07/01 07:51:31;;;;;;;2.75;1.90;;;27.50;37.90;;;;;;5055382;28;20232;-61
2023/07/01 07:53:58;;;;;;;3.95;1.98;;;27.50;37.40;;;;;;5067418;23;20212;-73
2023/07/01 07:56:26;;;;;;;21.08;6.70;;;27.30;38.20;;;;;;5082208;22;20234;-58
2023/07/01 07:58:53;;;;;;;11.23;4.50;;;27.30;38.90;;;;;;5053056;28;20556;-58
2023/07/01 08:01:20;;;;;;;6.50;2.97;;;27.30;38.00;;;;;;5052085;28;20721;-60
2023/07/01 08:03:49;;;;;;;3.15;2.22;;;27.20;38.60;;;;;;5053362;28;20183;-61
2023/07/01 08:06:16;;;;;;;3.45;2.08;;;27.20;39.20;;;;;;5053353;28;20249;-57
2023/07/01 08:08:43;;;;;;;2.85;1.92;;;27.10;38.80;;;;;;5052292;28;20202;-59
2023/07/01 08:11:10;;;;;;;6.20;2.10;;;27.00;39.60;;;;;;5052116;28;20202;-58
2023/07/01 08:13:37;;;;;;;4.15;3.03;;;27.10;39.00;;;;;;5053181;28;20210;-60
2023/07/01 08:16:05;;;;;;;18.27;6.07;;;27.20;39.40;;;;;;5053622;28;20711;-59
2023/07/01 08:18:31;;;;;;;26.63;11.48;;;27.00;39.70;;;;;;5053392;28;20234;-57
2023/07/01 08:21:00;;;;;;;20.42;7.93;;;27.00;40.00;;;;;;5052331;28;20562;-58
2023/07/01 08:23:27;;;;;;;10.50;5.20;;;27.00;40.00;;;;;;5053245;28;20183;-57
2023/07/01 08:25:55;;;;;;;8.90;4.05;;;27.00;39.80;;;;;;5053342;28;20199;-58
2023/07/01 08:28:22;;;;;;;8.63;3.22;;;27.20;39.90;;;;;;5053401;28;20183;-58
2023/07/01 08:30:49;;;;;;;4.70;2.63;;;27.30;39.70;;;;;;5053070;28;20186;-57
2023/07/01 08:33:16;;;;;;;4.00;2.40;;;27.40;39.80;;;;;;5053040;28;20206;-57
2023/07/01 08:35:43;;;;;;;3.60;2.05;;;27.40;40.30;;;;;;5053084;28;20185;-57
2023/07/01 08:38:12;;;;;;;4.68;2.40;;;27.30;39.90;;;;;;5051859;28;20199;-57
2023/07/01 08:40:39;;;;;;;4.10;2.60;;;27.40;39.90;;;;;;5053076;28;20225;-57
2023/07/01 08:43:06;;;;;;;3.65;2.17;;;27.40;39.90;;;;;;5052936;28;20210;-57
2023/07/01 08:45:33;;;;;;;2.97;2.00;;;27.40;39.90;;;;;;5053034;28;20191;-57
2023/07/01 08:48:00;;;;;;;2.08;1.98;;;27.30;39.70;;;;;;5053539;28;20191;-57
2023/07/01 08:50:30;;;;;;;2.70;2.50;;;27.30;40.40;;;;;;5057275;28;20270;-57
2023/07/01 08:53:00;;;;;;;3.33;2.17;;;27.20;39.90;;;;;;5055604;28;20691;-57
2023/07/01 08:55:28;;;;;;;3.35;2.20;;;27.20;40.20;;;;;;5055540;28;20213;-57
2023/07/01 08:57:56;;;;;;;4.88;1.90;;;27.20;39.60;;;;;;5057129;28;20271;-57
2023/07/01 09:00:23;;;;;;;3.38;2.03;;;27.20;39.60;;;;;;5055811;28;20202;-57
2023/07/01 09:02:51;;;;;;;3.13;2.00;;;27.20;39.60;;;;;;5055394;28;20222;-57
2023/07/01 09:05:18;;;;;;;5.47;2.13;;;27.30;39.50;;;;;;5055551;28;20195;-57
2023/07/01 09:07:45;;;;;;;3.30;2.00;;;27.40;40.10;;;;;;5056688;28;20198;-57
2023/07/01 09:10:13;;;;;;;2.35;2.15;;;27.40;39.80;;;;;;5055389;28;20204;-57
2023/07/01 09:12:41;;;;;;;2.30;2.03;;;27.40;39.50;;;;;;5056447;28;20210;-57
2023/07/01 09:15:09;;;;;;;2.30;1.90;;;27.50;39.10;;;;;;5055114;28;20215;-57
2023/07/01 09:17:38;;;;;;;2.53;1.90;;;27.50;39.00;;;;;;5056368;28;20273;-57
2023/07/01 09:20:06;;;;;;;1.85;1.70;;;27.60;38.00;;;;;;5055156;28;20198;-57
2023/07/01 09:22:33;;;;;;;2.40;2.20;;;27.60;37.50;;;;;;5056457;28;20214;-57
2023/07/01 09:25:00;;;;;;;2.42;1.98;;;27.60;37.00;;;;;;5056349;28;20218;-57
2023/07/01 09:27:39;;;;;;;2.10;1.85;;;27.60;37.00;;;;;;5055074;28;20193;-57
2023/07/01 09:30:25;;;;;;;1.90;1.75;;;27.50;37.10;;;;;;5055133;28;20286;-57
2023/07/01 09:32:52;;;;;;;2.25;2.03;;;27.50;37.90;;;;;;5056735;28;20563;-57
2023/07/01 09:35:19;;;;;;;1.75;1.65;;;27.50;38.60;;;;;;5056209;28;20211;-57
2023/07/01 09:37:46;;;;;;;2.28;1.80;;;27.40;38.60;;;;;;5056221;28;20565;-57
2023/07/01 09:40:20;;;;;;;2.15;1.95;;;27.40;38.60;;;;;;5056094;28;20194;-57
2023/07/01 09:42:50;;;;;;;2.80;2.10;;;27.40;38.10;;;;;;5055313;28;20419;-58
2023/07/01 09:45:19;;;;;;;3.67;2.08;;;27.40;38.30;;;;;;5054785;28;20511;-57
2023/07/01 09:47:48;;;;;;;4.32;2.17;;;27.40;38.60;;;;;;5054987;28;20567;-57
2023/07/01 09:50:21;;;;;;;1.80;1.70;;;27.40;38.20;;;;;;5055894;28;20205;-57
2023/07/01 09:52:50;;;;;;;3.92;2.00;;;27.40;37.20;;;;;;5056059;28;20294;-57
2023/07/01 09:55:17;;;;;;;3.20;2.00;;;27.40;37.40;;;;;;5055687;28;20215;-57
2023/07/01 09:57:44;;;;;;;3.25;2.20;;;27.50;37.50;;;;;;5056086;28;20690;-57
2023/07/01 10:00:15;;;;;;;2.95;2.40;;;27.40;36.20;;;;;;5054471;28;20246;-57
2023/07/01 10:02:44;;;;;;;3.13;2.13;;;27.40;34.30;;;;;;5056061;28;20297;-58
2023/07/01 10:05:12;;;;;;;2.42;2.20;;;27.40;34.30;;;;;;5054862;28;20675;-58
2023/07/01 10:07:39;;;;;;;2.92;2.50;;;27.40;34.80;;;;;;5054265;28;20580;-58
2023/07/01 10:10:11;;;;;;;2.58;2.10;;;27.30;34.60;;;;;;5054330;28;20213;-57
2023/07/01 10:12:38;;;;;;;3.55;2.05;;;27.20;34.20;;;;;;5054190;28;20218;-58
2023/07/01 10:15:06;;;;;;;2.53;2.20;;;27.20;34.80;;;;;;5054022;28;20236;-58
2023/07/01 10:17:47;;;;;;;2.22;1.70;;;27.20;35.90;;;;;;5054191;28;20187;-58
2023/07/01 10:20:28;;;;;;;4.30;1.92;;;27.20;36.20;;;;;;5055659;28;20218;-60
2023/07/01 10:22:55;;;;;;;2.00;1.80;;;27.30;36.40;;;;;;5054003;28;20229;-60
2023/07/01 10:25:32;;;;;;;2.25;2.05;;;27.30;35.80;;;;;;5053999;28;20678;-60
2023/07/01 10:28:09;;;;;;;4.75;1.95;;;27.30;34.90;;;;;;5054033;28;20194;-60
2023/07/01 10:31:10;;;;;;;2.03;1.83;;;27.30;35.80;;;;;;5055171;28;20715;-57
2023/07/01 10:33:54;;;;;;;3.33;2.08;;;27.30;34.90;;;;;;5055263;28;20214;-57
2023/07/01 10:36:22;;;;;;;1.83;1.73;;;27.20;34.90;;;;;;5055363;28;20183;-57
2023/07/01 10:38:49;;;;;;;3.58;2.10;;;27.20;34.60;;;;;;5054899;28;20280;-57
2023/07/01 10:41:16;;;;;;;2.92;2.20;;;27.20;34.80;;;;;;5053534;28;20225;-57
2023/07/01 10:43:43;;;;;;;2.95;1.88;;;27.20;35.00;;;;;;5053080;28;20293;-57
2023/07/01 10:46:11;;;;;;;2.10;1.90;;;27.20;35.10;;;;;;5054772;28;20187;-57
2023/07/01 10:48:39;;;;;;;2.28;1.90;;;27.20;35.70;;;;;;5053664;28;20194;-57
2023/07/01 10:51:07;;;;;;;2.15;1.77;;;27.20;36.00;;;;;;5053401;28;20195;-57
2023/07/01 10:53:59;;;;;;;4.00;2.15;;;27.10;35.70;;;;;;5054535;28;20651;-57
2023/07/01 10:56:27;;;;;;;2.30;2.10;;;27.10;35.60;;;;;;5054637;28;20222;-57
2023/07/01 10:59:19;;;;;;;4.00;2.28;;;27.00;36.20;;;;;;5054001;28;20194;-57
2023/07/01 11:01:47;;;;;;;2.10;1.90;;;27.10;36.20;;;;;;5053151;28;20229;-57
2023/07/01 11:04:14;;;;;;;3.35;2.00;;;27.10;36.10;;;;;;5054844;28;20214;-57
2023/07/01 11:06:49;;;;;;;1.98;1.80;;;27.10;36.40;;;;;;5054668;28;20568;-57
2023/07/01 11:09:26;;;;;;;4.03;2.70;;;27.10;36.70;;;;;;5053048;28;20194;-57
2023/07/01 11:11:54;;;;;;;4.20;2.85;;;27.10;34.50;;;;;;5053878;28;20222;-57
2023/07/01 11:14:21;;;;;;;3.25;2.80;;;27.10;32.50;;;;;;5053177;28;20261;-57
2023/07/01 11:16:48;;;;;;;3.67;3.38;;;27.00;32.40;;;;;;5054566;28;20183;-57
2023/07/01 11:19:16;;;;;;;3.30;2.90;;;27.00;32.90;;;;;;5054250;28;20191;-57
2023/07/01 11:24:22;;;;;;;6.05;3.47;;;27.10;32.50;;;;;;5064728;22;20264;-56
2023/07/01 11:26:49;;;;;;;4.70;3.20;;;27.20;32.60;;;;;;5057338;28;20190;-59
2023/07/01 11:29:16;;;;;;;5.10;3.13;;;27.10;32.50;;;;;;5056879;28;20198;-59
2023/07/01 11:31:43;;;;;;;4.03;2.80;;;27.20;32.70;;;;;;5074770;28;20210;-59
2023/07/01 11:34:14;;;;;;;3.88;2.92;;;27.20;33.10;;;;;;5056735;28;20261;-58
2023/07/01 11:36:44;;;;;;;3.83;3.20;;;27.20;33.20;;;;;;5073939;28;20170;-58
2023/07/01 11:39:13;;;;;;;3.92;3.28;;;27.20;33.10;;;;;;5073877;28;20193;-60
2023/07/01 11:41:42;;;;;;;3.10;2.75;;;27.20;33.10;;;;;;5073803;28;20218;-58
2023/07/01 11:44:10;;;;;;;4.47;2.90;;;27.20;33.30;;;;;;5055835;28;20566;-58
2023/07/01 11:46:37;;;;;;;5.03;3.22;;;27.20;34.30;;;;;;5055883;28;20638;-60
2023/07/01 11:49:18;;;;;;;3.72;2.90;;;27.20;33.80;;;;;;5074004;28;20186;-61
2023/07/01 11:51:47;;;;;;;3.22;2.72;;;27.10;34.00;;;;;;5055923;28;20705;-60
2023/07/01 11:54:14;;;;;;;5.20;3.65;;;27.00;35.10;;;;;;5055589;28;20213;-60
2023/07/01 11:56:43;;;;;;;3.38;3.08;;;27.10;34.60;;;;;;5055785;28;20543;-59
2023/07/01 11:59:10;;;;;;;6.00;3.20;;;27.00;34.50;;;;;;5145313;22;20191;-75
2023/07/01 12:01:38;;;;;;;4.93;3.35;;;26.90;35.00;;;;;;5054413;28;20218;-76
2023/07/01 12:04:16;;;;;;;4.35;2.85;;;26.90;34.80;;;;;;5063261;28;20639;-77
2023/07/01 12:06:43;;;;;;;3.38;2.97;;;26.90;35.20;;;;;;5073310;28;20193;-76
2023/07/01 12:09:10;;;;;;;4.82;3.00;;;26.90;35.20;;;;;;5073125;28;20228;-77
2023/07/01 12:11:47;;;;;;;3.22;2.80;;;26.90;35.20;;;;;;5073209;28;20226;-74
2023/07/01 12:14:19;;;;;;;3.80;3.20;;;26.80;35.50;;;;;;5073301;28;20259;-75
2023/07/01 12:16:47;;;;;;;3.72;2.85;;;26.90;35.70;;;;;;5074475;28;20379;-75
2023/07/01 12:19:15;;;;;;;3.70;2.83;;;26.90;36.10;;;;;;5073513;28;20674;-75
2023/07/01 12:21:43;;;;;;;4.88;3.00;;;26.90;36.00;;;;;;5072441;28;20672;-75
2023/07/01 12:24:17;;;;;;;4.63;2.80;;;26.90;36.20;;;;;;5071573;28;20304;-74
2023/07/01 12:26:46;;;;;;;4.03;2.78;;;26.90;36.60;;;;;;5072237;28;20247;-73
2023/07/01 12:29:13;;;;;;;4.35;2.80;;;26.90;36.80;;;;;;5072340;28;20620;-74
2023/07/01 12:31:41;;;;;;;2.67;2.40;;;26.90;36.50;;;;;;5072240;28;20202;-74
2023/07/01 12:34:08;;;;;;;3.20;2.35;;;26.80;36.70;;;;;;5073681;28;20256;-75
2023/07/01 12:36:36;;;;;;;4.63;2.65;;;26.80;36.70;;;;;;5072390;28;20205;-74
2023/07/01 12:39:03;;;;;;;2.75;2.42;;;26.80;36.90;;;;;;5071970;28;20198;-76
2023/07/01 12:41:31;;;;;;;5.47;2.40;;;26.80;36.50;;;;;;5074200;28;20204;-74
2023/07/01 12:43:59;;;;;;;4.03;2.50;;;26.70;36.40;;;;;;5072169;28;20221;-75
2023/07/01 12:46:26;;;;;;;3.97;2.33;;;26.50;37.20;;;;;;5073923;28;20193;-74
2023/07/01 12:48:54;;;;;;;3.20;2.50;;;26.50;37.40;;;;;;5072539;28;20251;-75
2023/07/01 12:51:21;;;;;;;3.30;2.30;;;26.50;37.80;;;;;;5072213;28;20194;-74
2023/07/01 12:53:48;;;;;;;2.90;2.60;;;26.40;38.10;;;;;;5071892;28;20723;-74
2023/07/01 12:56:15;;;;;;;2.50;2.30;;;26.40;37.80;;;;;;5071888;28;20222;-75
2023/07/01 12:58:42;;;;;;;2.10;1.90;;;26.50;37.00;;;;;;5071987;28;20626;-76
2023/07/01 13:01:11;;;;;;;2.40;2.00;;;26.40;36.90;;;;;;5071614;28;20660;-75
2023/07/01 13:03:40;;;;;;;2.38;1.80;;;26.30;37.40;;;;;;5071669;28;20214;-75
2023/07/01 13:06:26;;;;;;;3.15;1.75;;;26.40;37.30;;;;;;5072203;28;20676;-73
2023/07/01 13:08:53;;;;;;;1.65;1.55;;;26.40;37.10;;;;;;5072215;28;20275;-74
2023/07/01 13:11:23;;;;;;;1.83;1.60;;;26.30;37.50;;;;;;5072362;28;20682;-74
2023/07/01 13:13:50;;;;;;;2.78;1.70;;;26.30;38.30;;;;;;5071703;28;20222;-73
2023/07/01 13:16:29;;;;;;;2.58;1.80;;;26.20;38.00;;;;;;5072785;28;20210;-74